sensor_id;sensor_type;location;lat;lon;timestamp;pressure;altitude;pressure_sealevel;temperature;humidity
41264;BME280;26998;48.714;9.414;2023-03-22T00:01:17;99112.44;;;8.51;100.00
41264;BME280;26998;48.714;9.414;2023-03-22T00:03:44;99125.81;;;8.43;100.00
41264;BME280;26998;48.714;9.414;2023-03-22T00:06:11;99150.13;;;8.40;100.00
41264;BME280;26998;48.714;9.414;2023-03-22T00:08:39;99193.56;;;8.40;100.00
41264;BME280;26998;48.714;9.414;2023-03-22T00:11:06;99214.56;;;8.35;100.00
41264;BME280;26998;48.714;9.414;2023-03-22T00:13:33;99239.34;;;8.36;100.00
41264;BME280;26998;48.714;9.414;2023-03-22T00:16:01;99244.69;;;8.36;100.00
41264;BME280;26998;48.714;9.414;2023-03-22T00:18:28;99233.84;;;8.37;100.00
41264;BME280;26998;48.714;9.414;2023-03-22T00:20:56;99220.41;;;8.30;100.00
41264;BME280;26998;48.714;9.414;2023-03-22T00:23:24;99222.75;;;8.25;100.00
41264;BME280;26998;48.714;9.414;2023-03-22T00:25:51;99226.09;;;8.19;100.00
41264;BME280;26998;48.714;9.414;2023-03-22T00:28:18;99223.97;;;8.15;100.00
41264;BME280;26998;48.714;9.414;2023-03-22T00:30:59;99250.94;;;8.12;100.00
41264;BME280;26998;48.714;9.414;2023-03-22T00:33:27;99259.81;;;8.04;100.00
41264;BME280;26998;48.714;9.414;2023-03-22T00:35:58;99280.59;;;8.00;100.00
41264;BME280;26998;48.714;9.414;2023-03-22T00:38:25;99279.47;;;7.95;100.00
41264;BME280;26998;48.714;9.414;2023-03-22T00:41:12;99280.97;;;7.89;100.00
41264;BME280;26998;48.714;9.414;2023-03-22T00:43:40;99282.81;;;7.80;100.00
41264;BME280;26998;48.714;9.414;2023-03-22T00:46:07;99288.31;;;7.71;100.00
41264;BME280;26998;48.714;9.414;2023-03-22T00:48:34;99306.78;;;7.64;100.00
41264;BME280;26998;48.714;9.414;2023-03-22T00:51:01;99317.09;;;7.59;100.00
41264;BME280;26998;48.714;9.414;2023-03-22T00:53:27;99320.09;;;7.56;100.00
41264;BME280;26998;48.714;9.414;2023-03-22T00:55:55;99321.56;;;7.50;100.00
41264;BME280;26998;48.714;9.414;2023-03-22T00:58:22;99318.59;;;7.45;100.00
41264;BME280;26998;48.714;9.414;2023-03-22T01:00:48;99329.06;;;7.47;100.00
41264;BME280;26998;48.714;9.414;2023-03-22T01:03:15;99321.75;;;7.40;100.00
41264;BME280;26998;48.714;9.414;2023-03-22T01:05:45;99310.13;;;7.33;100.00
41264;BME280;26998;48.714;9.414;2023-03-22T01:08:12;99326.41;;;7.30;100.00
41264;BME280;26998;48.714;9.414;2023-03-22T01:10:39;99333.88;;;7.35;100.00
41264;BME280;26998;48.714;9.414;2023-03-22T01:13:07;99327.91;;;7.33;100.00
41264;BME280;26998;48.714;9.414;2023-03-22T01:15:34;99326.06;;;7.33;100.00
41264;BME280;26998;48.714;9.414;2023-03-22T01:18:00;99321.44;;;7.35;100.00
41264;BME280;26998;48.714;9.414;2023-03-22T01:20:27;99320.75;;;7.33;100.00
41264;BME280;26998;48.714;9.414;2023-03-22T01:22:54;99317.25;;;7.25;100.00
41264;BME280;26998;48.714;9.414;2023-03-22T01:25:21;99325.06;;;7.18;100.00
41264;BME280;26998;48.714;9.414;2023-03-22T01:27:47;99324.56;;;7.14;100.00
41264;BME280;26998;48.714;9.414;2023-03-22T01:30:14;99328.72;;;7.09;100.00
41264;BME280;26998;48.714;9.414;2023-03-22T01:32:41;99336.66;;;7.01;100.00
41264;BME280;26998;48.714;9.414;2023-03-22T01:35:08;99340.63;;;6.97;100.00
41264;BME280;26998;48.714;9.414;2023-03-22T01:37:35;99340.13;;;6.93;100.00
41264;BME280;26998;48.714;9.414;2023-03-22T01:40:02;99341.63;;;6.87;100.00
41264;BME280;26998;48.714;9.414;2023-03-22T01:42:28;99345.91;;;6.80;100.00
41264;BME280;26998;48.714;9.414;2023-03-22T01:47:44;99358.84;;;6.67;100.00
41264;BME280;26998;48.714;9.414;2023-03-22T01:50:13;99374.09;;;6.65;100.00
41264;BME280;26998;48.714;9.414;2023-03-22T01:52:41;99377.22;;;6.60;100.00
41264;BME280;26998;48.714;9.414;2023-03-22T01:55:08;99381.38;;;6.55;100.00
41264;BME280;26998;48.714;9.414;2023-03-22T01:57:35;99382.97;;;6.47;100.00
41264;BME280;26998;48.714;9.414;2023-03-22T02:00:09;99387.25;;;6.40;100.00
41264;BME280;26998;48.714;9.414;2023-03-22T02:02:36;99405.47;;;6.35;100.00
41264;BME280;26998;48.714;9.414;2023-03-22T02:05:02;99412.78;;;6.33;100.00
41264;BME280;26998;48.714;9.414;2023-03-22T02:07:29;99416.56;;;6.31;100.00
41264;BME280;26998;48.714;9.414;2023-03-22T02:09:57;99415.03;;;6.20;100.00
41264;BME280;26998;48.714;9.414;2023-03-22T02:12:32;99419.97;;;6.15;100.00
41264;BME280;26998;48.714;9.414;2023-03-22T02:15:12;99426.03;;;6.07;100.00
41264;BME280;26998;48.714;9.414;2023-03-22T02:17:55;99448.56;;;6.03;100.00
41264;BME280;26998;48.714;9.414;2023-03-22T02:26:07;99464.31;;;5.87;100.00
41264;BME280;26998;48.714;9.414;2023-03-22T02:32:10;99494.25;;;5.79;100.00
41264;BME280;26998;48.714;9.414;2023-03-22T02:35:24;99490.09;;;5.76;100.00
41264;BME280;26998;48.714;9.414;2023-03-22T02:38:09;99497.75;;;5.79;100.00
41264;BME280;26998;48.714;9.414;2023-03-22T02:41:26;99487.97;;;5.80;100.00
41264;BME280;26998;48.714;9.414;2023-03-22T02:44:45;99479.34;;;5.78;100.00
41264;BME280;26998;48.714;9.414;2023-03-22T02:49:47;99466.38;;;5.75;100.00
41264;BME280;26998;48.714;9.414;2023-03-22T02:52:43;99464.63;;;5.66;100.00
41264;BME280;26998;48.714;9.414;2023-03-22T02:58:09;99484.41;;;5.53;100.00
41264;BME280;26998;48.714;9.414;2023-03-22T03:00:37;99488.88;;;5.53;100.00
41264;BME280;26998;48.714;9.414;2023-03-22T03:03:09;99495.00;;;5.53;100.00
41264;BME280;26998;48.714;9.414;2023-03-22T03:05:49;99497.94;;;5.50;100.00
41264;BME280;26998;48.714;9.414;2023-03-22T03:08:19;99492.81;;;5.49;100.00
41264;BME280;26998;48.714;9.414;2023-03-22T03:10:46;99490.47;;;5.46;100.00
41264;BME280;26998;48.714;9.414;2023-03-22T03:13:16;99486.19;;;5.35;100.00
41264;BME280;26998;48.714;9.414;2023-03-22T03:15:45;99494.38;;;5.24;100.00
41264;BME280;26998;48.714;9.414;2023-03-22T03:32:03;99538.53;;;5.05;100.00
41264;BME280;26998;48.714;9.414;2023-03-22T03:34:51;99555.53;;;5.03;100.00
41264;BME280;26998;48.714;9.414;2023-03-22T03:37:30;99563.03;;;5.07;100.00
41264;BME280;26998;48.714;9.414;2023-03-22T03:40:06;99568.34;;;5.07;100.00
41264;BME280;26998;48.714;9.414;2023-03-22T03:42:37;99561.94;;;5.00;100.00
41264;BME280;26998;48.714;9.414;2023-03-22T03:45:06;99560.16;;;4.91;100.00
41264;BME280;26998;48.714;9.414;2023-03-22T03:47:34;99569.09;;;4.90;100.00
41264;BME280;26998;48.714;9.414;2023-03-22T03:50:05;99587.06;;;4.96;100.00
41264;BME280;26998;48.714;9.414;2023-03-22T03:52:32;99575.41;;;4.89;100.00
41264;BME280;26998;48.714;9.414;2023-03-22T03:54:59;99570.66;;;4.83;100.00
41264;BME280;26998;48.714;9.414;2023-03-22T03:57:25;99567.91;;;4.75;100.00
41264;BME280;26998;48.714;9.414;2023-03-22T03:59:52;99573.47;;;4.72;100.00
41264;BME280;26998;48.714;9.414;2023-03-22T04:02:18;99584.19;;;4.70;100.00
41264;BME280;26998;48.714;9.414;2023-03-22T04:04:45;99585.72;;;4.73;100.00
41264;BME280;26998;48.714;9.414;2023-03-22T04:07:12;99591.03;;;4.73;100.00
41264;BME280;26998;48.714;9.414;2023-03-22T04:09:38;99583.06;;;4.73;100.00
41264;BME280;26998;48.714;9.414;2023-03-22T04:12:05;99587.53;;;4.72;100.00
41264;BME280;26998;48.714;9.414;2023-03-22T04:14:31;99572.66;;;4.71;100.00
41264;BME280;26998;48.714;9.414;2023-03-22T04:16:58;99572.38;;;4.65;100.00
41264;BME280;26998;48.714;9.414;2023-03-22T04:19:25;99564.03;;;4.59;100.00
41264;BME280;26998;48.714;9.414;2023-03-22T04:21:52;99568.78;;;4.56;100.00
41264;BME280;26998;48.714;9.414;2023-03-22T04:24:20;99574.47;;;4.51;100.00
41264;BME280;26998;48.714;9.414;2023-03-22T04:26:47;99582.69;;;4.48;100.00
41264;BME280;26998;48.714;9.414;2023-03-22T04:29:14;99591.34;;;4.40;100.00
41264;BME280;26998;48.714;9.414;2023-03-22T04:31:40;99602.22;;;4.37;100.00
41264;BME280;26998;48.714;9.414;2023-03-22T04:34:07;98939.13;;;4.35;100.00
41264;BME280;26998;48.714;9.414;2023-03-22T04:36:36;98908.38;;;4.34;100.00
41264;BME280;26998;48.714;9.414;2023-03-22T04:39:03;98901.72;;;4.30;100.00
41264;BME280;26998;48.714;9.414;2023-03-22T04:41:30;98893.25;;;4.26;100.00
41264;BME280;26998;48.714;9.414;2023-03-22T04:43:57;98889.16;;;4.24;100.00
41264;BME280;26998;48.714;9.414;2023-03-22T04:46:23;98884.00;;;4.22;100.00
41264;BME280;26998;48.714;9.414;2023-03-22T04:48:50;98887.63;;;4.21;100.00
41264;BME280;26998;48.714;9.414;2023-03-22T04:51:17;98889.16;;;4.24;100.00
41264;BME280;26998;48.714;9.414;2023-03-22T04:53:43;98883.69;;;4.25;100.00
41264;BME280;26998;48.714;9.414;2023-03-22T04:56:11;98883.00;;;4.23;100.00
41264;BME280;26998;48.714;9.414;2023-03-22T04:58:40;98890.41;;;4.20;100.00
41264;BME280;26998;48.714;9.414;2023-03-22T05:01:09;98884.63;;;4.16;100.00
41264;BME280;26998;48.714;9.414;2023-03-22T05:03:36;98879.81;;;4.11;100.00
41264;BME280;26998;48.714;9.414;2023-03-22T05:06:05;98885.31;;;4.18;100.00
41264;BME280;26998;48.714;9.414;2023-03-22T05:08:32;98885.09;;;4.11;100.00
41264;BME280;26998;48.714;9.414;2023-03-22T05:11:05;98893.34;;;4.08;100.00
41264;BME280;26998;48.714;9.414;2023-03-22T05:13:32;98884.22;;;4.03;100.00
41264;BME280;26998;48.714;9.414;2023-03-22T05:15:59;98875.22;;;3.96;100.00
41264;BME280;26998;48.714;9.414;2023-03-22T05:18:25;98874.41;;;3.95;100.00
41264;BME280;26998;48.714;9.414;2023-03-22T05:20:54;98872.22;;;3.90;100.00
41264;BME280;26998;48.714;9.414;2023-03-22T05:23:22;98870.59;;;3.89;100.00
41264;BME280;26998;48.714;9.414;2023-03-22T05:25:50;98858.19;;;3.90;100.00
41264;BME280;26998;48.714;9.414;2023-03-22T05:28:19;98860.34;;;3.94;100.00
41264;BME280;26998;48.714;9.414;2023-03-22T05:30:47;98855.88;;;3.95;100.00
41264;BME280;26998;48.714;9.414;2023-03-22T05:33:14;98854.25;;;3.94;100.00
41264;BME280;26998;48.714;9.414;2023-03-22T05:35:41;98853.41;;;3.93;100.00
41264;BME280;26998;48.714;9.414;2023-03-22T05:38:08;98856.19;;;3.92;100.00
41264;BME280;26998;48.714;9.414;2023-03-22T05:40:35;98859.22;;;3.97;100.00
41264;BME280;26998;48.714;9.414;2023-03-22T05:43:01;98849.00;;;4.02;100.00
41264;BME280;26998;48.714;9.414;2023-03-22T05:45:28;98860.25;;;4.04;100.00
41264;BME280;26998;48.714;9.414;2023-03-22T05:47:54;98867.53;;;4.02;100.00
41264;BME280;26998;48.714;9.414;2023-03-22T05:50:22;98868.19;;;4.04;100.00
41264;BME280;26998;48.714;9.414;2023-03-22T05:52:49;98866.91;;;4.08;100.00
41264;BME280;26998;48.714;9.414;2023-03-22T05:55:16;98863.72;;;4.05;100.00
41264;BME280;26998;48.714;9.414;2023-03-22T05:57:43;98864.69;;;4.04;100.00
41264;BME280;26998;48.714;9.414;2023-03-22T06:00:12;98868.34;;;4.03;100.00
41264;BME280;26998;48.714;9.414;2023-03-22T06:02:40;98860.25;;;4.04;100.00
41264;BME280;26998;48.714;9.414;2023-03-22T06:05:08;98865.91;;;4.09;100.00
41264;BME280;26998;48.714;9.414;2023-03-22T06:07:36;98861.28;;;4.11;100.00
41264;BME280;26998;48.714;9.414;2023-03-22T06:10:04;98863.78;;;4.13;100.00
41264;BME280;26998;48.714;9.414;2023-03-22T06:12:31;98862.00;;;4.22;100.00
41264;BME280;26998;48.714;9.414;2023-03-22T06:14:57;98861.38;;;4.28;100.00
41264;BME280;26998;48.714;9.414;2023-03-22T06:17:24;98867.22;;;4.39;100.00
41264;BME280;26998;48.714;9.414;2023-03-22T06:19:51;98869.38;;;4.44;100.00
41264;BME280;26998;48.714;9.414;2023-03-22T06:22:18;98879.66;;;4.47;100.00
41264;BME280;26998;48.714;9.414;2023-03-22T06:24:45;98889.97;;;4.58;100.00
41264;BME280;26998;48.714;9.414;2023-03-22T06:27:12;98898.81;;;4.75;100.00
41264;BME280;26998;48.714;9.414;2023-03-22T06:29:39;98905.97;;;4.91;100.00
41264;BME280;26998;48.714;9.414;2023-03-22T06:32:06;98916.44;;;5.01;100.00
41264;BME280;26998;48.714;9.414;2023-03-22T06:34:32;98927.56;;;5.13;100.00
41264;BME280;26998;48.714;9.414;2023-03-22T06:36:59;98950.72;;;5.10;100.00
41264;BME280;26998;48.714;9.414;2023-03-22T06:39:26;98956.56;;;5.14;100.00
41264;BME280;26998;48.714;9.414;2023-03-22T06:41:52;98968.66;;;5.25;100.00
41264;BME280;26998;48.714;9.414;2023-03-22T06:44:19;98977.00;;;5.46;100.00
41264;BME280;26998;48.714;9.414;2023-03-22T06:46:46;98987.16;;;5.67;100.00
41264;BME280;26998;48.714;9.414;2023-03-22T06:49:12;98998.25;;;5.63;100.00
41264;BME280;26998;48.714;9.414;2023-03-22T06:51:39;99001.78;;;5.79;100.00
41264;BME280;26998;48.714;9.414;2023-03-22T06:54:06;99015.84;;;5.80;100.00
41264;BME280;26998;48.714;9.414;2023-03-22T06:56:32;99010.03;;;5.85;100.00
41264;BME280;26998;48.714;9.414;2023-03-22T06:58:59;99013.38;;;5.87;100.00
41264;BME280;26998;48.714;9.414;2023-03-22T07:01:25;99010.25;;;5.99;100.00
41264;BME280;26998;48.714;9.414;2023-03-22T07:03:52;99017.91;;;6.19;100.00
41264;BME280;26998;48.714;9.414;2023-03-22T07:06:19;99012.25;;;6.30;100.00
41264;BME280;26998;48.714;9.414;2023-03-22T07:08:45;99016.56;;;6.56;100.00
41264;BME280;26998;48.714;9.414;2023-03-22T07:11:12;99015.88;;;6.70;100.00
41264;BME280;26998;48.714;9.414;2023-03-22T07:13:38;99012.97;;;6.96;100.00
41264;BME280;26998;48.714;9.414;2023-03-22T07:16:06;99004.78;;;7.14;100.00
41264;BME280;26998;48.714;9.414;2023-03-22T07:18:33;98991.91;;;7.26;100.00
41264;BME280;26998;48.714;9.414;2023-03-22T07:20:59;98989.91;;;7.28;100.00
41264;BME280;26998;48.714;9.414;2023-03-22T07:23:26;98994.63;;;7.49;100.00
41264;BME280;26998;48.714;9.414;2023-03-22T07:25:52;98972.44;;;7.64;100.00
41264;BME280;26998;48.714;9.414;2023-03-22T07:28:19;98972.75;;;7.70;100.00
41264;BME280;26998;48.714;9.414;2023-03-22T07:30:45;98969.88;;;7.94;100.00
41264;BME280;26998;48.714;9.414;2023-03-22T07:33:12;98962.16;;;8.22;100.00
41264;BME280;26998;48.714;9.414;2023-03-22T07:35:39;98949.91;;;8.36;100.00
41264;BME280;26998;48.714;9.414;2023-03-22T07:38:07;98937.72;;;8.71;100.00
41264;BME280;26998;48.714;9.414;2023-03-22T07:40:35;98910.06;;;8.87;100.00
41264;BME280;26998;48.714;9.414;2023-03-22T07:43:01;98894.50;;;8.91;100.00
41264;BME280;26998;48.714;9.414;2023-03-22T07:45:28;98886.78;;;8.96;100.00
41264;BME280;26998;48.714;9.414;2023-03-22T07:47:54;98893.03;;;9.03;100.00
41264;BME280;26998;48.714;9.414;2023-03-22T07:50:20;98881.72;;;9.16;100.00
41264;BME280;26998;48.714;9.414;2023-03-22T07:52:47;98867.16;;;9.40;100.00
41264;BME280;26998;48.714;9.414;2023-03-22T07:55:14;98847.72;;;9.67;100.00
41264;BME280;26998;48.714;9.414;2023-03-22T07:57:40;98823.94;;;9.94;100.00
41264;BME280;26998;48.714;9.414;2023-03-22T08:00:07;98810.66;;;10.07;100.00
41264;BME280;26998;48.714;9.414;2023-03-22T08:02:35;98791.56;;;10.38;100.00
41264;BME280;26998;48.714;9.414;2023-03-22T08:05:01;98773.94;;;10.57;100.00
41264;BME280;26998;48.714;9.414;2023-03-22T08:07:28;98747.00;;;10.59;100.00
41264;BME280;26998;48.714;9.414;2023-03-22T08:09:54;98735.97;;;10.69;100.00
41264;BME280;26998;48.714;9.414;2023-03-22T08:12:23;98734.53;;;10.79;100.00
41264;BME280;26998;48.714;9.414;2023-03-22T08:14:49;98714.81;;;10.87;100.00
41264;BME280;26998;48.714;9.414;2023-03-22T08:17:17;98719.38;;;11.00;100.00
41264;BME280;26998;48.714;9.414;2023-03-22T08:19:44;98710.31;;;11.21;100.00
41264;BME280;26998;48.714;9.414;2023-03-22T08:22:11;98699.22;;;11.44;100.00
41264;BME280;26998;48.714;9.414;2023-03-22T08:24:38;98675.31;;;11.49;100.00
41264;BME280;26998;48.714;9.414;2023-03-22T08:27:04;98667.69;;;11.46;100.00
41264;BME280;26998;48.714;9.414;2023-03-22T08:29:31;98659.41;;;11.67;100.00
41264;BME280;26998;48.714;9.414;2023-03-22T08:31:57;98646.56;;;12.09;100.00
41264;BME280;26998;48.714;9.414;2023-03-22T08:34:24;98628.19;;;12.13;100.00
41264;BME280;26998;48.714;9.414;2023-03-22T08:36:50;98615.69;;;12.38;100.00
41264;BME280;26998;48.714;9.414;2023-03-22T08:39:16;98605.16;;;12.43;100.00
41264;BME280;26998;48.714;9.414;2023-03-22T08:41:43;98586.69;;;12.85;100.00
41264;BME280;26998;48.714;9.414;2023-03-22T08:44:09;98574.91;;;13.36;100.00
41264;BME280;26998;48.714;9.414;2023-03-22T08:46:36;98557.84;;;13.24;100.00
41264;BME280;26998;48.714;9.414;2023-03-22T08:49:03;98546.31;;;13.42;100.00
41264;BME280;26998;48.714;9.414;2023-03-22T08:51:29;98537.31;;;13.36;100.00
41264;BME280;26998;48.714;9.414;2023-03-22T08:53:56;98526.31;;;13.75;100.00
41264;BME280;26998;48.714;9.414;2023-03-22T08:56:22;98522.03;;;13.85;100.00
41264;BME280;26998;48.714;9.414;2023-03-22T08:58:49;98511.50;;;13.54;100.00
41264;BME280;26998;48.714;9.414;2023-03-22T09:01:16;98502.59;;;14.02;100.00
41264;BME280;26998;48.714;9.414;2023-03-22T09:03:42;98496.78;;;14.17;100.00
41264;BME280;26998;48.714;9.414;2023-03-22T09:06:09;98490.91;;;14.73;98.82
41264;BME280;26998;48.714;9.414;2023-03-22T09:08:36;98487.31;;;14.91;94.82
41264;BME280;26998;48.714;9.414;2023-03-22T09:11:03;98482.63;;;14.63;95.62
41264;BME280;26998;48.714;9.414;2023-03-22T09:13:30;98483.56;;;14.69;91.52
41264;BME280;26998;48.714;9.414;2023-03-22T09:15:56;98477.63;;;14.55;92.61
41264;BME280;26998;48.714;9.414;2023-03-22T09:18:23;98484.84;;;15.01;90.20
41264;BME280;26998;48.714;9.414;2023-03-22T09:20:51;98470.22;;;14.97;89.88
41264;BME280;26998;48.714;9.414;2023-03-22T09:23:18;98475.25;;;14.82;90.94
41264;BME280;26998;48.714;9.414;2023-03-22T09:25:47;98467.44;;;14.69;93.23
41264;BME280;26998;48.714;9.414;2023-03-22T09:28:14;98472.31;;;15.07;92.11
41264;BME280;26998;48.714;9.414;2023-03-22T09:30:41;98462.66;;;15.35;89.67
41264;BME280;26998;48.714;9.414;2023-03-22T09:33:08;98460.25;;;15.21;89.96
41264;BME280;26998;48.714;9.414;2023-03-22T09:35:34;98466.06;;;15.30;86.66
41264;BME280;26998;48.714;9.414;2023-03-22T09:38:01;98461.31;;;15.61;85.83
41264;BME280;26998;48.714;9.414;2023-03-22T09:40:29;98453.50;;;16.05;84.86
41264;BME280;26998;48.714;9.414;2023-03-22T09:43:02;98451.19;;;15.80;83.72
41264;BME280;26998;48.714;9.414;2023-03-22T09:45:42;98447.69;;;15.96;82.63
41264;BME280;26998;48.714;9.414;2023-03-22T09:48:31;98436.38;;;15.82;85.54
41264;BME280;26998;48.714;9.414;2023-03-22T09:50:59;98441.25;;;16.14;84.90
41264;BME280;26998;48.714;9.414;2023-03-22T09:53:28;98450.75;;;15.88;82.40
41264;BME280;26998;48.714;9.414;2023-03-22T09:56:15;98439.84;;;15.94;87.04
41264;BME280;26998;48.714;9.414;2023-03-22T10:09:49;98424.38;;;17.13;74.79
41264;BME280;26998;48.714;9.414;2023-03-22T10:12:27;98422.09;;;17.49;68.85
41264;BME280;26998;48.714;9.414;2023-03-22T10:15:07;98425.88;;;18.29;62.67
41264;BME280;26998;48.714;9.414;2023-03-22T10:17:37;98427.72;;;17.91;60.24
41264;BME280;26998;48.714;9.414;2023-03-22T10:20:19;98413.97;;;17.98;62.24
41264;BME280;26998;48.714;9.414;2023-03-22T10:22:47;98415.91;;;17.26;63.93
41264;BME280;26998;48.714;9.414;2023-03-22T10:25:21;98413.31;;;17.37;64.36
41264;BME280;26998;48.714;9.414;2023-03-22T10:27:49;98405.53;;;17.40;65.94
41264;BME280;26998;48.714;9.414;2023-03-22T10:30:22;98402.81;;;17.40;64.28
41264;BME280;26998;48.714;9.414;2023-03-22T10:33:03;98386.66;;;17.72;61.52
41264;BME280;26998;48.714;9.414;2023-03-22T10:35:30;98391.44;;;17.60;59.54
41264;BME280;26998;48.714;9.414;2023-03-22T10:38:00;98391.81;;;17.47;59.69
41264;BME280;26998;48.714;9.414;2023-03-22T10:40:33;98389.63;;;17.71;59.44
41264;BME280;26998;48.714;9.414;2023-03-22T10:43:19;98393.03;;;17.83;54.50
41264;BME280;26998;48.714;9.414;2023-03-22T10:45:47;98385.81;;;17.18;54.57
41264;BME280;26998;48.714;9.414;2023-03-22T10:48:29;98374.47;;;17.97;53.21
41264;BME280;26998;48.714;9.414;2023-03-22T10:50:58;98379.66;;;18.36;53.02
41264;BME280;26998;48.714;9.414;2023-03-22T10:53:46;98380.75;;;18.40;53.26
41264;BME280;26998;48.714;9.414;2023-03-22T10:56:17;98381.25;;;17.94;59.66
41264;BME280;26998;48.714;9.414;2023-03-22T10:58:45;98381.69;;;18.18;54.69
41264;BME280;26998;48.714;9.414;2023-03-22T11:01:15;98384.25;;;18.35;52.28
41264;BME280;26998;48.714;9.414;2023-03-22T11:03:51;98375.50;;;18.23;52.69
41264;BME280;26998;48.714;9.414;2023-03-22T11:06:29;98367.91;;;18.57;49.64
41264;BME280;26998;48.714;9.414;2023-03-22T11:09:07;98375.25;;;18.24;53.35
41264;BME280;26998;48.714;9.414;2023-03-22T11:11:44;98363.91;;;18.28;50.56
41264;BME280;26998;48.714;9.414;2023-03-22T11:14:19;98371.53;;;18.78;50.72
41264;BME280;26998;48.714;9.414;2023-03-22T11:16:52;98369.00;;;19.14;47.45
41264;BME280;26998;48.714;9.414;2023-03-22T11:19:41;98371.75;;;19.29;48.07
41264;BME280;26998;48.714;9.414;2023-03-22T11:25:02;98376.31;;;19.19;43.32
41264;BME280;26998;48.714;9.414;2023-03-22T11:27:33;98368.53;;;19.43;43.24
41264;BME280;26998;48.714;9.414;2023-03-22T11:30:20;98357.97;;;19.46;45.36
41264;BME280;26998;48.714;9.414;2023-03-22T11:32:48;98362.84;;;19.49;43.77
41264;BME280;26998;48.714;9.414;2023-03-22T11:35:20;98350.72;;;18.84;46.50
41264;BME280;26998;48.714;9.414;2023-03-22T11:37:51;98342.94;;;18.45;46.90
41264;BME280;26998;48.714;9.414;2023-03-22T11:40:25;98350.22;;;18.92;48.05
41264;BME280;26998;48.714;9.414;2023-03-22T11:43:02;98337.84;;;19.22;46.55
41264;BME280;26998;48.714;9.414;2023-03-22T11:45:40;98338.66;;;19.17;45.02
41264;BME280;26998;48.714;9.414;2023-03-22T11:48:17;98331.13;;;19.39;43.56
41264;BME280;26998;48.714;9.414;2023-03-22T11:50:44;98337.91;;;19.32;41.15
41264;BME280;26998;48.714;9.414;2023-03-22T11:53:17;98338.97;;;19.31;42.46
41264;BME280;26998;48.714;9.414;2023-03-22T11:55:46;98331.69;;;19.42;41.66
41264;BME280;26998;48.714;9.414;2023-03-22T12:01:32;98324.03;;;19.18;40.73
41264;BME280;26998;48.714;9.414;2023-03-22T12:04:02;98334.88;;;19.18;38.89
41264;BME280;26998;48.714;9.414;2023-03-22T12:06:33;98332.13;;;19.08;38.22
41264;BME280;26998;48.714;9.414;2023-03-22T12:11:55;98305.47;;;19.88;37.16
41264;BME280;26998;48.714;9.414;2023-03-22T12:14:27;98306.53;;;20.02;37.58
41264;BME280;26998;48.714;9.414;2023-03-22T12:17:12;98298.38;;;19.87;37.08
41264;BME280;26998;48.714;9.414;2023-03-22T12:19:48;98298.53;;;19.09;37.47
41264;BME280;26998;48.714;9.414;2023-03-22T12:22:22;98286.13;;;19.13;37.91
41264;BME280;26998;48.714;9.414;2023-03-22T12:24:52;98293.13;;;19.04;38.36
41264;BME280;26998;48.714;9.414;2023-03-22T12:27:25;98289.13;;;19.42;38.70
41264;BME280;26998;48.714;9.414;2023-03-22T12:29:58;98276.69;;;19.41;37.91
41264;BME280;26998;48.714;9.414;2023-03-22T12:32:35;98281.28;;;19.25;37.53
41264;BME280;26998;48.714;9.414;2023-03-22T12:35:05;98281.28;;;19.56;37.45
41264;BME280;26998;48.714;9.414;2023-03-22T12:37:45;98284.56;;;19.73;36.16
41264;BME280;26998;48.714;9.414;2023-03-22T12:40:23;98284.81;;;19.46;37.91
41264;BME280;26998;48.714;9.414;2023-03-22T12:43:51;98284.03;;;19.81;35.07
41264;BME280;26998;48.714;9.414;2023-03-22T12:45:55;98283.16;;;19.20;35.83
41264;BME280;26998;48.714;9.414;2023-03-22T12:50:59;98280.69;;;19.13;37.05
41264;BME280;26998;48.714;9.414;2023-03-22T12:53:33;98268.81;;;19.45;35.88
41264;BME280;26998;48.714;9.414;2023-03-22T12:56:01;98279.09;;;19.22;35.55
41264;BME280;26998;48.714;9.414;2023-03-22T12:58:28;98269.84;;;19.08;35.34
41264;BME280;26998;48.714;9.414;2023-03-22T13:00:58;98277.41;;;19.06;36.55
41264;BME280;26998;48.714;9.414;2023-03-22T13:03:47;98269.78;;;18.87;35.33
41264;BME280;26998;48.714;9.414;2023-03-22T13:06:32;98277.31;;;18.75;35.66
41264;BME280;26998;48.714;9.414;2023-03-22T13:11:28;98257.41;;;19.37;35.00
41264;BME280;26998;48.714;9.414;2023-03-22T13:13:55;98261.72;;;19.08;35.34
41264;BME280;26998;48.714;9.414;2023-03-22T13:16:23;98249.56;;;19.31;35.95
41264;BME280;26998;48.714;9.414;2023-03-22T13:19:24;98239.81;;;19.60;36.26
41264;BME280;26998;48.714;9.414;2023-03-22T13:22:15;98247.69;;;19.52;35.81
41264;BME280;26998;48.714;9.414;2023-03-22T13:30:35;98230.88;;;19.50;36.60
41264;BME280;26998;48.714;9.414;2023-03-22T13:33:24;98230.34;;;19.63;36.95
41264;BME280;26998;48.714;9.414;2023-03-22T13:36:04;98221.16;;;19.69;35.61
41264;BME280;26998;48.714;9.414;2023-03-22T13:38:35;98221.94;;;19.49;35.89
41264;BME280;26998;48.714;9.414;2023-03-22T13:48:50;98199.63;;;20.19;36.17
41264;BME280;26998;48.714;9.414;2023-03-22T13:54:01;98212.16;;;19.58;36.35
41264;BME280;26998;48.714;9.414;2023-03-22T13:59:00;98201.06;;;19.29;36.62
41264;BME280;26998;48.714;9.414;2023-03-22T14:01:32;98191.59;;;19.32;36.99
41264;BME280;26998;48.714;9.414;2023-03-22T14:04:03;98192.13;;;19.39;37.43
41264;BME280;26998;48.714;9.414;2023-03-22T14:06:40;98189.69;;;19.27;37.12
41264;BME280;26998;48.714;9.414;2023-03-22T14:09:24;98186.97;;;19.53;37.41
41264;BME280;26998;48.714;9.414;2023-03-22T14:11:58;98184.28;;;19.73;36.49
41264;BME280;26998;48.714;9.414;2023-03-22T14:14:34;98173.13;;;19.80;35.34
41264;BME280;26998;48.714;9.414;2023-03-22T14:17:08;98181.28;;;19.85;35.23
41264;BME280;26998;48.714;9.414;2023-03-22T14:19:40;98177.13;;;20.13;34.87
41264;BME280;26998;48.714;9.414;2023-03-22T14:22:15;98180.91;;;20.17;33.85
41264;BME280;26998;48.714;9.414;2023-03-22T14:24:42;98179.06;;;19.97;32.56
41264;BME280;26998;48.714;9.414;2023-03-22T14:27:08;98179.53;;;20.20;32.12
41264;BME280;26998;48.714;9.414;2023-03-22T14:29:45;98176.47;;;20.37;31.12
41264;BME280;26998;48.714;9.414;2023-03-22T14:32:22;98176.31;;;20.02;31.13